createdAt,value
2023-04-19T00:02:14.465Z,99.90
2023-04-19T00:04:45.287Z,99.90
2023-04-19T00:07:13.917Z,99.90
2023-04-19T00:09:43.798Z,99.90
2023-04-19T00:12:11.963Z,99.90
2023-04-19T00:14:40.042Z,99.90
2023-04-19T00:17:08.688Z,99.90
2023-04-19T00:19:36.880Z,99.90
2023-04-19T00:22:05.128Z,99.90
2023-04-19T00:24:36.539Z,99.90
2023-04-19T00:27:06.015Z,99.90
2023-04-19T00:29:34.294Z,99.90
2023-04-19T00:32:02.738Z,99.90
2023-04-19T00:34:30.827Z,99.90
2023-04-19T00:36:59.127Z,99.90
2023-04-19T00:39:27.555Z,99.90
2023-04-19T00:41:57.316Z,99.90
2023-04-19T00:44:26.933Z,99.90
2023-04-19T00:46:57.072Z,99.90
2023-04-19T00:49:26.435Z,99.90
2023-04-19T00:51:58.125Z,99.90
2023-04-19T00:54:26.751Z,99.90
2023-04-19T00:56:55.052Z,99.90
2023-04-19T00:59:23.753Z,99.90
2023-04-19T01:01:53.363Z,99.90
2023-04-19T01:04:23.126Z,99.90
2023-04-19T01:06:52.381Z,99.90
2023-04-19T01:09:20.496Z,99.90
2023-04-19T01:11:48.820Z,99.90
2023-04-19T01:14:16.948Z,99.90
2023-04-19T01:16:45.771Z,99.90
2023-04-19T01:19:15.318Z,99.90
2023-04-19T01:21:43.835Z,99.90
2023-04-19T01:24:13.703Z,99.90
2023-04-19T01:26:42.132Z,99.90
2023-04-19T01:29:10.374Z,99.90
2023-04-19T01:31:38.573Z,99.90
2023-04-19T01:34:06.799Z,99.90
2023-04-19T01:36:35.040Z,99.90
2023-04-19T01:39:03.350Z,99.90
2023-04-19T01:41:32.946Z,99.90
2023-04-19T01:44:01.724Z,99.90
2023-04-19T01:46:29.872Z,99.90
2023-04-19T01:48:58.032Z,99.90
2023-04-19T01:51:26.381Z,99.90
2023-04-19T01:53:54.750Z,99.90
2023-04-19T01:56:23.295Z,99.90
2023-04-19T01:58:52.827Z,99.90
2023-04-19T02:01:21.236Z,99.90
2023-04-19T02:03:49.787Z,99.90
2023-04-19T02:06:20.847Z,99.90
2023-04-19T02:08:48.989Z,99.90
2023-04-19T02:11:17.271Z,99.90
2023-04-19T02:13:45.517Z,99.90
2023-04-19T02:16:14.996Z,99.90
2023-04-19T02:18:43.476Z,99.90
2023-04-19T02:21:12.565Z,99.90
2023-04-19T02:23:40.658Z,99.90
2023-04-19T02:26:09.266Z,99.90
2023-04-19T02:28:38.113Z,99.90
2023-04-19T02:31:08.725Z,99.90
2023-04-19T02:33:38.449Z,99.90
2023-04-19T02:36:07.415Z,99.90
2023-04-19T02:38:35.550Z,99.90
2023-04-19T02:41:04.495Z,99.90
2023-04-19T02:43:32.614Z,99.90
2023-04-19T02:46:01.008Z,99.90
2023-04-19T02:48:29.570Z,99.90
2023-04-19T02:50:59.112Z,99.90
2023-04-19T02:53:27.185Z,99.90
2023-04-19T02:55:55.467Z,99.90
2023-04-19T02:58:23.706Z,99.90
2023-04-19T03:00:51.974Z,99.90
2023-04-19T03:03:20.469Z,99.90
2023-04-19T03:05:48.870Z,99.90
2023-04-19T03:08:18.561Z,99.90
2023-04-19T03:10:46.938Z,99.90
2023-04-19T03:13:15.158Z,99.90
2023-04-19T03:15:43.345Z,99.90
2023-04-19T03:18:11.602Z,99.90
2023-04-19T03:20:39.858Z,99.90
2023-04-19T03:23:08.135Z,99.90
2023-04-19T03:25:37.875Z,99.90
2023-04-19T03:28:06.360Z,99.90
2023-04-19T03:30:35.043Z,99.90
2023-04-19T03:33:03.201Z,99.90
2023-04-19T03:35:32.504Z,99.90
2023-04-19T03:38:00.622Z,99.90
2023-04-19T03:40:28.895Z,99.90
2023-04-19T03:42:58.369Z,99.90
2023-04-19T03:45:27.266Z,99.90
2023-04-19T03:47:55.562Z,99.90
2023-04-19T03:50:23.788Z,99.90
2023-04-19T03:52:51.896Z,99.90
2023-04-19T03:55:20.246Z,99.90
2023-04-19T03:57:48.353Z,99.90
2023-04-19T04:00:18.622Z,99.90
2023-04-19T04:02:47.021Z,99.90
2023-04-19T04:05:15.568Z,99.90
2023-04-19T04:07:43.789Z,99.90
2023-04-19T04:10:12.139Z,99.90
2023-04-19T04:12:40.366Z,99.90
2023-04-19T04:15:10.071Z,99.90
2023-04-19T04:17:39.732Z,99.90
2023-04-19T04:20:10.049Z,99.90
2023-04-19T04:22:42.145Z,99.90
2023-04-19T04:25:11.013Z,99.90
2023-04-19T04:27:39.399Z,99.90
2023-04-19T04:30:09.011Z,99.90
2023-04-19T04:32:37.259Z,99.90
2023-04-19T04:35:08.008Z,99.90
2023-04-19T04:37:36.790Z,99.90
2023-04-19T04:40:06.416Z,99.90
2023-04-19T04:42:34.732Z,99.90
2023-04-19T04:45:03.328Z,99.90
2023-04-19T04:47:33.322Z,99.90
2023-04-19T04:50:02.472Z,99.90
2023-04-19T04:52:32.328Z,99.90
2023-04-19T04:55:00.470Z,99.90
2023-04-19T04:57:28.739Z,99.90
2023-04-19T04:59:57.429Z,99.90
2023-04-19T05:02:25.755Z,99.90
2023-04-19T05:04:54.062Z,99.90
2023-04-19T05:07:22.433Z,99.90
2023-04-19T05:09:51.892Z,99.90
2023-04-19T05:12:20.188Z,99.90
2023-04-19T05:14:48.553Z,99.90
2023-04-19T05:17:16.626Z,99.90
2023-04-19T05:19:45.112Z,99.90
2023-04-19T05:22:13.796Z,99.90
2023-04-19T05:24:42.478Z,99.90
2023-04-19T05:27:12.480Z,99.90
2023-04-19T05:29:40.772Z,99.90
2023-04-19T05:32:09.047Z,99.90
2023-04-19T05:34:37.762Z,99.90
2023-04-19T05:37:07.278Z,99.90
2023-04-19T05:39:35.484Z,99.90
2023-04-19T05:42:03.640Z,99.90
2023-04-19T05:44:33.295Z,99.90
2023-04-19T05:47:01.422Z,99.90
2023-04-19T05:49:29.754Z,99.90
2023-04-19T05:51:57.975Z,99.90
2023-04-19T05:54:26.260Z,99.90
2023-04-19T05:56:54.467Z,99.90
2023-04-19T05:59:22.629Z,99.90
2023-04-19T06:01:52.798Z,99.90
2023-04-19T06:04:21.963Z,99.90
2023-04-19T06:06:51.092Z,99.90
2023-04-19T06:09:19.390Z,99.90
2023-04-19T06:11:51.356Z,99.90
2023-04-19T06:14:20.122Z,99.90
2023-04-19T06:16:48.780Z,99.90
2023-04-19T06:19:18.235Z,99.90
2023-04-19T06:21:47.716Z,99.90
2023-04-19T06:24:16.486Z,99.90
2023-04-19T06:26:44.780Z,99.90
2023-04-19T06:29:12.956Z,99.90
2023-04-19T06:31:41.430Z,99.90
2023-04-19T06:34:11.105Z,99.90
2023-04-19T06:36:40.954Z,99.90
2023-04-19T06:39:10.097Z,99.90
2023-04-19T06:41:38.218Z,99.90
2023-04-19T06:44:06.847Z,99.90
2023-04-19T06:46:35.079Z,99.90
2023-04-19T06:49:03.211Z,99.90
2023-04-19T06:51:31.581Z,99.90
2023-04-19T06:54:01.392Z,99.90
2023-04-19T06:56:45.371Z,99.90
2023-04-19T06:59:14.069Z,99.90
2023-04-19T07:01:42.326Z,99.90
2023-04-19T07:04:11.490Z,99.90
2023-04-19T07:06:40.804Z,99.90
2023-04-19T07:09:10.578Z,99.90
2023-04-19T07:11:38.790Z,99.90
2023-04-19T07:14:06.955Z,99.90
2023-04-19T07:16:35.279Z,99.90
2023-04-19T07:19:03.650Z,99.90
2023-04-19T07:21:33.565Z,99.90
2023-04-19T07:24:02.012Z,99.90
2023-04-19T07:26:31.744Z,99.90
2023-04-19T07:29:00.016Z,99.90
2023-04-19T07:31:29.201Z,99.90
2023-04-19T07:33:57.612Z,99.90
2023-04-19T07:36:25.743Z,99.90
2023-04-19T07:38:54.086Z,99.90
2023-04-19T07:41:22.237Z,99.90
2023-04-19T07:43:51.720Z,99.90
2023-04-19T07:46:20.296Z,99.90
2023-04-19T07:48:48.442Z,99.90
2023-04-19T07:51:17.879Z,99.90
2023-04-19T07:53:47.673Z,99.90
2023-04-19T07:56:16.947Z,99.90
2023-04-19T07:58:46.643Z,99.90
2023-04-19T08:01:18.539Z,99.90
2023-04-19T08:03:47.291Z,99.90
2023-04-19T08:06:15.591Z,99.90
2023-04-19T08:08:44.051Z,99.90
2023-04-19T08:11:12.246Z,99.90
2023-04-19T08:13:40.706Z,99.90
2023-04-19T08:18:42.445Z,99.90
2023-04-19T08:21:11.145Z,99.90
2023-04-19T08:23:47.687Z,99.90
2023-04-19T08:26:16.830Z,99.90
2023-04-19T08:28:45.031Z,99.90
2023-04-19T08:31:13.137Z,99.90
2023-04-19T08:33:42.940Z,99.90
2023-04-19T08:36:11.676Z,99.90
2023-04-19T08:38:44.523Z,99.90
2023-04-19T08:41:15.654Z,99.90
2023-04-19T08:43:45.452Z,99.90
2023-04-19T08:46:13.768Z,99.90
2023-04-19T08:48:45.104Z,99.90
2023-04-19T08:51:15.216Z,99.90
2023-04-19T08:53:44.606Z,99.90
2023-04-19T08:56:23.995Z,99.90
2023-04-19T08:59:15.800Z,99.90
2023-04-19T09:01:46.751Z,99.90
2023-04-19T09:04:35.770Z,99.90
2023-04-19T09:07:05.289Z,99.90
2023-04-19T09:09:39.143Z,99.90
2023-04-19T09:12:18.902Z,99.90
2023-04-19T09:17:19.543Z,99.90
2023-04-19T09:19:50.162Z,99.90
2023-04-19T09:22:18.835Z,99.90
2023-04-19T09:27:27.931Z,99.90
2023-04-19T09:29:57.151Z,99.90
2023-04-19T09:32:25.987Z,99.90
2023-04-19T09:34:57.234Z,99.90
2023-04-19T09:39:57.724Z,99.90
2023-04-19T09:48:02.793Z,99.90
2023-04-19T09:50:34.231Z,99.90
2023-04-19T09:53:07.771Z,99.90
2023-04-19T09:55:52.689Z,99.90
2023-04-19T09:58:29.413Z,99.90
2023-04-19T10:01:14.183Z,99.90
2023-04-19T10:03:44.914Z,99.90
2023-04-19T10:06:35.974Z,99.90
2023-04-19T10:09:06.651Z,99.90
2023-04-19T10:11:38.968Z,99.90
2023-04-19T10:14:09.202Z,99.90
2023-04-19T10:16:39.446Z,99.90
2023-04-19T10:19:12.344Z,99.90
2023-04-19T10:21:43.354Z,99.90
2023-04-19T10:24:14.799Z,99.90
2023-04-19T10:27:12.531Z,99.90
2023-04-19T10:29:57.199Z,99.90
2023-04-19T10:32:27.892Z,99.90
2023-04-19T10:34:56.033Z,99.90
2023-04-19T10:37:27.707Z,99.90
2023-04-19T10:39:56.200Z,99.90
2023-04-19T10:42:24.307Z,99.90
2023-04-19T10:45:29.691Z,99.90
2023-04-19T10:47:57.950Z,99.90
2023-04-19T10:50:26.919Z,99.90
2023-04-19T10:52:56.610Z,99.90
2023-04-19T10:55:24.925Z,99.90
2023-04-19T10:58:08.774Z,99.90
2023-04-19T11:00:38.511Z,99.90
2023-04-19T11:03:42.981Z,99.90
2023-04-19T11:06:19.233Z,99.90
2023-04-19T11:08:48.823Z,99.90
2023-04-19T11:11:17.271Z,99.90
2023-04-19T11:13:45.807Z,99.90
2023-04-19T11:16:14.229Z,99.90
2023-04-19T11:18:42.402Z,99.90
2023-04-19T11:21:14.947Z,99.90
2023-04-19T11:23:43.029Z,99.90
2023-04-19T11:26:13.243Z,99.90
2023-04-19T11:28:41.383Z,99.90
2023-04-19T11:31:09.571Z,99.90
2023-04-19T11:33:38.604Z,99.90
2023-04-19T11:36:12.926Z,99.90
2023-04-19T11:38:41.553Z,99.90
2023-04-19T11:41:09.699Z,99.90
2023-04-19T11:43:40.187Z,99.90
2023-04-19T11:46:09.491Z,99.90
2023-04-19T11:48:37.863Z,99.90
2023-04-19T11:51:06.609Z,99.90
2023-04-19T11:53:34.870Z,99.90
2023-04-19T11:56:06.950Z,99.90
2023-04-19T11:58:40.367Z,99.90
2023-04-19T12:01:10.799Z,99.90
2023-04-19T12:03:43.842Z,99.90
2023-04-19T12:06:13.282Z,99.90
2023-04-19T12:08:45.562Z,99.90
2023-04-19T12:11:14.091Z,99.90
2023-04-19T12:13:44.496Z,99.90
2023-04-19T12:16:13.511Z,99.90
2023-04-19T12:18:46.512Z,99.90
2023-04-19T12:21:29.117Z,99.90
2023-04-19T12:24:01.573Z,99.90
2023-04-19T12:26:31.202Z,99.90
2023-04-19T12:29:02.714Z,99.90
2023-04-19T12:31:33.874Z,99.90
2023-04-19T12:34:02.259Z,99.90
2023-04-19T12:36:30.485Z,99.90
2023-04-19T12:39:01.730Z,99.90
2023-04-19T12:41:30.008Z,99.90
2023-04-19T12:43:58.143Z,99.90
2023-04-19T12:46:27.981Z,99.90
2023-04-19T12:48:56.252Z,99.90
2023-04-19T12:51:24.421Z,99.90
2023-04-19T12:53:54.193Z,99.90
2023-04-19T12:56:22.456Z,99.90
2023-04-19T12:58:50.606Z,99.90
2023-04-19T13:01:18.724Z,99.90
2023-04-19T13:03:48.614Z,99.90
2023-04-19T13:06:17.370Z,99.90
2023-04-19T13:08:47.783Z,99.90
2023-04-19T13:11:17.869Z,99.90
2023-04-19T13:13:46.044Z,99.90
2023-04-19T13:16:14.336Z,99.90
2023-04-19T13:18:47.259Z,99.90
2023-04-19T13:21:24.334Z,99.90
2023-04-19T13:23:53.393Z,99.90
2023-04-19T13:26:21.653Z,99.90
2023-04-19T13:28:50.082Z,99.90
2023-04-19T13:31:18.218Z,99.90
2023-04-19T13:33:46.932Z,99.90
2023-04-19T13:36:15.289Z,99.90
2023-04-19T13:38:45.053Z,99.90
2023-04-19T13:41:13.541Z,99.90
2023-04-19T13:43:42.199Z,99.90
2023-04-19T13:46:10.441Z,99.90
2023-04-19T13:48:38.888Z,99.90
2023-04-19T13:51:07.946Z,99.90
2023-04-19T13:53:36.041Z,99.90
2023-04-19T13:56:09.400Z,99.90
2023-04-19T13:58:37.603Z,99.90
2023-04-19T14:01:06.085Z,99.90
2023-04-19T14:03:34.554Z,99.90
2023-04-19T14:06:02.799Z,99.90
2023-04-19T14:08:31.050Z,99.70
2023-04-19T14:10:59.443Z,99.80
2023-04-19T14:13:29.031Z,99.90
2023-04-19T14:15:57.284Z,99.60
2023-04-19T14:18:25.645Z,99.10
2023-04-19T14:20:53.834Z,98.60
2023-04-19T14:23:22.329Z,97.40
2023-04-19T14:25:51.137Z,96.00
2023-04-19T14:28:19.979Z,96.70
2023-04-19T14:30:49.621Z,97.30
2023-04-19T14:33:17.928Z,97.30
2023-04-19T14:35:46.146Z,95.60
2023-04-19T14:38:14.365Z,95.70
2023-04-19T14:40:42.464Z,95.50
2023-04-19T14:43:12.442Z,96.90
2023-04-19T14:45:40.713Z,95.60
2023-04-19T14:48:10.317Z,94.70
2023-04-19T14:50:38.489Z,95.20
2023-04-19T14:53:06.873Z,94.40
2023-04-19T14:55:35.157Z,95.20
2023-04-19T14:58:03.295Z,94.00
2023-04-19T15:00:31.877Z,95.30
2023-04-19T15:03:00.320Z,97.00
2023-04-19T15:05:30.421Z,97.20
2023-04-19T15:08:00.521Z,97.10
2023-04-19T15:10:28.831Z,93.00
2023-04-19T15:12:57.986Z,96.60
2023-04-19T15:15:26.254Z,93.60
2023-04-19T15:17:54.609Z,93.30
2023-04-19T15:20:22.871Z,93.50
2023-04-19T15:22:52.812Z,94.60
2023-04-19T15:25:21.095Z,93.40
2023-04-19T15:27:50.777Z,93.80
2023-04-19T15:30:19.079Z,93.90
2023-04-19T15:32:47.485Z,93.80
2023-04-19T15:35:15.862Z,94.80
2023-04-19T15:37:44.262Z,92.30
2023-04-19T15:40:14.537Z,94.70
2023-04-19T15:42:42.637Z,93.00
2023-04-19T15:45:11.734Z,93.20
2023-04-19T15:47:40.909Z,92.90
2023-04-19T15:50:10.121Z,93.40
2023-04-19T15:52:38.552Z,93.30
2023-04-19T15:55:07.451Z,93.00
2023-04-19T15:57:36.917Z,92.40
2023-04-19T16:00:09.643Z,88.50
2023-04-19T16:02:37.949Z,91.00
2023-04-19T16:05:06.941Z,88.40
2023-04-19T16:07:35.702Z,87.50
2023-04-19T16:10:04.261Z,88.50
2023-04-19T16:12:32.486Z,87.60
2023-04-19T16:15:02.273Z,87.40
2023-04-19T16:17:30.495Z,89.10
2023-04-19T16:19:58.977Z,86.40
2023-04-19T16:22:27.238Z,86.20
2023-04-19T16:24:55.397Z,88.30
2023-04-19T16:27:23.727Z,85.40
2023-04-19T16:29:51.878Z,88.00
2023-04-19T16:32:21.441Z,83.70
2023-04-19T16:34:50.157Z,85.60
2023-04-19T16:37:18.437Z,84.80
2023-04-19T16:39:46.627Z,84.10
2023-04-19T16:42:15.413Z,84.00
2023-04-19T16:44:43.655Z,84.00
2023-04-19T16:47:12.082Z,83.50
2023-04-19T16:49:41.737Z,85.80
2023-04-19T16:52:10.134Z,86.10
2023-04-19T16:54:38.234Z,87.60
2023-04-19T16:57:06.849Z,87.70
2023-04-19T16:59:35.031Z,89.90
2023-04-19T17:02:03.213Z,90.50
2023-04-19T17:04:32.410Z,89.60
2023-04-19T17:07:02.381Z,89.80
2023-04-19T17:09:30.924Z,90.00
2023-04-19T17:11:59.343Z,90.10
2023-04-19T17:14:27.762Z,90.00
2023-04-19T17:16:56.074Z,90.30
2023-04-19T17:19:24.314Z,90.20
2023-04-19T17:21:52.554Z,91.40
2023-04-19T17:24:22.126Z,90.30
2023-04-19T17:26:50.984Z,91.40
2023-04-19T17:29:19.356Z,91.30
2023-04-19T17:31:47.722Z,91.40
2023-04-19T17:34:17.025Z,90.90
2023-04-19T17:36:45.148Z,91.50
2023-04-19T17:39:13.285Z,91.00
2023-04-19T17:41:44.006Z,91.10
2023-04-19T17:44:12.621Z,91.10
2023-04-19T17:46:40.907Z,90.90
2023-04-19T17:49:10.421Z,92.10
2023-04-19T17:51:38.693Z,91.40
2023-04-19T17:54:06.870Z,90.90
2023-04-19T17:56:35.269Z,91.10
2023-04-19T17:59:05.007Z,92.00
2023-04-19T18:01:35.061Z,91.60
2023-04-19T18:04:04.397Z,91.80
2023-04-19T18:06:32.837Z,92.10
2023-04-19T18:09:01.577Z,92.80
2023-04-19T18:11:29.850Z,93.10
2023-04-19T18:14:01.109Z,92.30
2023-04-19T18:16:30.846Z,92.90
2023-04-19T18:18:59.000Z,93.00
2023-04-19T18:21:27.158Z,93.30
2023-04-19T18:23:56.589Z,93.80
2023-04-19T18:26:24.684Z,93.80
2023-04-19T18:28:53.067Z,94.40
2023-04-19T18:31:21.513Z,94.40
2023-04-19T18:33:51.073Z,94.40
2023-04-19T18:36:20.478Z,94.70
2023-04-19T18:38:48.731Z,94.70
2023-04-19T18:41:16.838Z,95.00
2023-04-19T18:43:59.795Z,95.20
2023-04-19T18:46:33.422Z,95.50
2023-04-19T18:49:03.136Z,95.80
2023-04-19T18:51:31.400Z,96.30
2023-04-19T18:53:59.908Z,96.40
2023-04-19T18:57:03.771Z,96.80
2023-04-19T18:59:16.902Z,96.40
2023-04-19T19:01:46.095Z,96.30
2023-04-19T19:06:51.726Z,96.40
2023-04-19T19:09:22.797Z,96.80
2023-04-19T19:11:56.482Z,97.00
2023-04-19T19:14:25.449Z,97.20
2023-04-19T19:16:53.590Z,97.50
2023-04-19T19:19:23.132Z,97.80
2023-04-19T19:21:52.243Z,98.20
2023-04-19T19:24:21.779Z,98.20
2023-04-19T19:26:52.974Z,98.60
2023-04-19T19:29:22.612Z,99.20
2023-04-19T19:31:51.105Z,98.70
2023-04-19T19:34:28.837Z,98.90
2023-04-19T19:37:00.216Z,99.10
2023-04-19T19:39:28.358Z,99.30
2023-04-19T19:42:05.858Z,99.10
2023-04-19T19:44:40.813Z,99.70
2023-04-19T19:47:10.558Z,99.60
2023-04-19T19:49:57.661Z,99.40
2023-04-19T19:52:30.389Z,99.80
2023-04-19T19:54:58.864Z,99.90
2023-04-19T20:00:17.883Z,99.90
2023-04-19T20:05:20.561Z,99.90
2023-04-19T20:08:00.406Z,99.90
2023-04-19T20:10:29.915Z,99.90
2023-04-19T20:12:58.604Z,99.90
2023-04-19T20:15:26.952Z,99.90
2023-04-19T20:17:55.506Z,99.90
2023-04-19T20:20:23.746Z,99.90
2023-04-19T20:22:53.292Z,99.90
2023-04-19T20:25:21.719Z,99.90
2023-04-19T20:27:49.885Z,99.90
2023-04-19T20:30:18.090Z,99.90
2023-04-19T20:32:48.519Z,99.90
2023-04-19T20:35:17.013Z,99.90
2023-04-19T20:37:45.486Z,99.90
2023-04-19T20:40:16.279Z,99.90
2023-04-19T20:42:44.997Z,99.90
2023-04-19T20:45:14.390Z,99.90
2023-04-19T20:47:43.162Z,99.90
2023-04-19T20:50:12.017Z,99.90
2023-04-19T20:52:40.502Z,99.90
2023-04-19T20:55:09.517Z,99.90
2023-04-19T20:57:39.069Z,99.90
2023-04-19T21:00:09.839Z,99.90
2023-04-19T21:02:38.761Z,99.90
2023-04-19T21:05:07.675Z,99.90
2023-04-19T21:07:35.923Z,99.90
2023-04-19T21:10:04.405Z,99.90
2023-04-19T21:12:32.603Z,99.90
2023-04-19T21:15:04.797Z,99.90
2023-04-19T21:17:33.107Z,99.90
2023-04-19T21:20:02.940Z,99.90
2023-04-19T21:22:31.238Z,99.90
2023-04-19T21:24:59.637Z,99.90
2023-04-19T21:27:27.956Z,99.90
2023-04-19T21:29:56.091Z,99.90
2023-04-19T21:32:28.134Z,99.90
2023-04-19T21:34:56.658Z,99.90
2023-04-19T21:37:24.760Z,99.90
2023-04-19T21:39:53.072Z,99.90
2023-04-19T21:42:21.765Z,99.90
2023-04-19T21:44:49.824Z,99.90
2023-04-19T21:47:18.245Z,99.90
2023-04-19T21:49:48.120Z,99.90
2023-04-19T21:52:16.369Z,99.90
2023-04-19T21:54:44.562Z,99.90
2023-04-19T21:57:12.816Z,99.90
2023-04-19T21:59:41.464Z,99.90
2023-04-19T22:02:09.773Z,99.90
2023-04-19T22:04:39.607Z,99.90
2023-04-19T22:07:11.708Z,99.90
2023-04-19T22:09:39.935Z,99.90
2023-04-19T22:12:09.262Z,99.90
2023-04-19T22:14:37.764Z,99.90
2023-04-19T22:17:06.786Z,99.90
2023-04-19T22:19:34.948Z,99.90
2023-04-19T22:22:03.285Z,99.90
2023-04-19T22:24:32.790Z,99.90
2023-04-19T22:27:01.794Z,99.90
2023-04-19T22:29:30.083Z,99.90
2023-04-19T22:31:58.288Z,99.90
2023-04-19T22:34:26.470Z,99.90
2023-04-19T22:36:56.745Z,99.90
2023-04-19T22:39:26.545Z,99.90
2023-04-19T22:41:56.416Z,99.90
2023-04-19T22:44:24.718Z,99.90
2023-04-19T22:46:53.084Z,99.90
2023-04-19T22:49:22.414Z,99.90
2023-04-19T22:51:52.542Z,99.90
2023-04-19T22:54:20.790Z,99.90
2023-04-19T22:56:48.989Z,99.90
2023-04-19T22:59:20.618Z,99.90
2023-04-19T23:01:49.074Z,99.90
2023-04-19T23:04:17.465Z,99.90
2023-04-19T23:06:48.738Z,99.90
2023-04-19T23:09:18.219Z,99.90
2023-04-19T23:11:47.287Z,99.90
2023-04-19T23:14:18.588Z,99.90
2023-04-19T23:16:48.447Z,99.90
2023-04-19T23:19:17.246Z,99.90
2023-04-19T23:21:45.775Z,99.90
2023-04-19T23:24:14.022Z,99.90
2023-04-19T23:26:42.222Z,99.90
2023-04-19T23:29:10.728Z,99.90
2023-04-19T23:31:39.257Z,99.90
2023-04-19T23:34:08.777Z,99.90
2023-04-19T23:36:37.042Z,99.90
2023-04-19T23:39:06.195Z,99.90
2023-04-19T23:41:34.375Z,99.90
2023-04-19T23:44:02.735Z,99.90
2023-04-19T23:46:30.973Z,99.90
2023-04-19T23:48:59.333Z,99.90
2023-04-19T23:51:29.155Z,99.90
2023-04-19T23:53:57.488Z,99.90
2023-04-19T23:56:25.815Z,99.90
2023-04-19T23:58:54.163Z,99.90
